DLH1LA EDDF-ESGG
Flight info
| Callsign | DLH1LA |
|---|---|
| Flight time | 1h 19m |
| Altitude | 37000 |
| Route | MARUN3W MARUN Y150 TOLGI DCT GOTEX N873 LOBBI |
| Aircraft | A321/M-SDE3FGHIRWY/LB1 |
Departure
| Time | 2026-05-06 15:33 |
|---|---|
| Airport | Frankfurt Main Airport (EDDF) |
Arrival
| Time | 2026-05-06 16:52 |
|---|---|
| Airport | Göteborg Landvetter Airport (ESGG) |
| Time | Latitude | Longitude | Altitude | Speed | Heading |
|---|---|---|---|---|---|
| 2026-05-06 15:13 | 50.04065 | 8.55616 | 359 ft | 0 kts | 160° |
| 2026-05-06 15:27 | 50.04065 | 8.55617 | 359 ft | 0 kts | 160° |
| 2026-05-06 15:28 | 50.04039 | 8.55631 | 369 ft | 8 kts | 160° |
| 2026-05-06 15:28 | 50.03996 | 8.55697 | 370 ft | 9 kts | 89° |
| 2026-05-06 15:28 | 50.04008 | 8.55782 | 369 ft | 8 kts | 70° |
| 2026-05-06 15:28 | 50.04032 | 8.55881 | 371 ft | 13 kts | 70° |
| 2026-05-06 15:29 | 50.04079 | 8.56081 | 369 ft | 26 kts | 70° |
| 2026-05-06 15:29 | 50.04144 | 8.56349 | 370 ft | 25 kts | 69° |
| 2026-05-06 15:29 | 50.04202 | 8.56589 | 369 ft | 22 kts | 69° |
| 2026-05-06 15:29 | 50.04251 | 8.56794 | 367 ft | 18 kts | 69° |
| 2026-05-06 15:30 | 50.04296 | 8.56984 | 368 ft | 20 kts | 70° |
| 2026-05-06 15:30 | 50.04347 | 8.57197 | 369 ft | 21 kts | 70° |
| 2026-05-06 15:30 | 50.04392 | 8.57387 | 368 ft | 17 kts | 70° |
| 2026-05-06 15:30 | 50.04432 | 8.57554 | 369 ft | 17 kts | 71° |
| 2026-05-06 15:31 | 50.04390 | 8.57652 | 367 ft | 10 kts | 166° |
| 2026-05-06 15:31 | 50.04312 | 8.57701 | 368 ft | 14 kts | 158° |
| 2026-05-06 15:31 | 50.04264 | 8.57661 | 367 ft | 0 kts | 249° |
| 2026-05-06 15:32 | 50.04264 | 8.57658 | 367 ft | 2 kts | 249° |
| 2026-05-06 15:32 | 50.04205 | 8.57409 | 371 ft | 58 kts | 250° |
| 2026-05-06 15:32 | 50.03982 | 8.56473 | 365 ft | 124 kts | 249° |
| 2026-05-06 15:32 | 50.03629 | 8.54980 | 572 ft | 155 kts | 252° |
| 2026-05-06 15:33 | 50.03264 | 8.53437 | 1344 ft | 152 kts | 251° |
| 2026-05-06 15:33 | 50.02885 | 8.51852 | 1912 ft | 164 kts | 251° |
| 2026-05-06 15:33 | 50.02372 | 8.50152 | 2209 ft | 187 kts | 236° |
| 2026-05-06 15:33 | 50.01384 | 8.48717 | 2686 ft | 201 kts | 212° |
| 2026-05-06 15:34 | 50.00062 | 8.47995 | 3368 ft | 205 kts | 192° |
| 2026-05-06 15:34 | 49.98672 | 8.47685 | 4026 ft | 205 kts | 191° |
| 2026-05-06 15:34 | 49.97238 | 8.47365 | 4625 ft | 205 kts | 191° |
| 2026-05-06 15:34 | 49.95857 | 8.46989 | 5150 ft | 205 kts | 198° |
| 2026-05-06 15:35 | 49.94431 | 8.46328 | 5421 ft | 224 kts | 199° |
| 2026-05-06 15:35 | 49.92874 | 8.45575 | 5817 ft | 239 kts | 204° |
| 2026-05-06 15:35 | 49.91513 | 8.44135 | 6551 ft | 240 kts | 230° |
| 2026-05-06 15:35 | 49.90725 | 8.41864 | 7257 ft | 244 kts | 255° |
| 2026-05-06 15:36 | 49.90723 | 8.39219 | 7997 ft | 250 kts | 283° |
| 2026-05-06 15:36 | 49.91552 | 8.36828 | 8740 ft | 260 kts | 312° |
| 2026-05-06 15:36 | 49.93081 | 8.35268 | 9485 ft | 269 kts | 335° |
| 2026-05-06 15:36 | 49.94866 | 8.34089 | 9853 ft | 288 kts | 335° |
| 2026-05-06 15:37 | 49.96791 | 8.32850 | 10122 ft | 309 kts | 335° |
| 2026-05-06 15:37 | 49.98858 | 8.31524 | 10293 ft | 332 kts | 336° |
| 2026-05-06 15:37 | 50.01027 | 8.30130 | 10747 ft | 342 kts | 336° |
| 2026-05-06 15:37 | 50.03338 | 8.29125 | 11369 ft | 348 kts | 349° |
| 2026-05-06 15:38 | 50.05778 | 8.28922 | 12010 ft | 355 kts | 2° |
| 2026-05-06 15:38 | 50.08231 | 8.29566 | 12639 ft | 361 kts | 15° |
| 2026-05-06 15:38 | 50.10597 | 8.30798 | 13307 ft | 365 kts | 18° |
| 2026-05-06 15:38 | 50.13013 | 8.32069 | 13893 ft | 367 kts | 17° |
| 2026-05-06 15:39 | 50.15450 | 8.33336 | 14393 ft | 371 kts | 17° |
| 2026-05-06 15:39 | 50.17911 | 8.34617 | 14947 ft | 374 kts | 17° |
| 2026-05-06 15:39 | 50.20383 | 8.35910 | 15484 ft | 378 kts | 17° |
| 2026-05-06 15:39 | 50.22887 | 8.37228 | 16011 ft | 380 kts | 18° |
| 2026-05-06 15:40 | 50.25407 | 8.38559 | 16558 ft | 383 kts | 17° |
| 2026-05-06 15:40 | 50.27947 | 8.39901 | 17053 ft | 387 kts | 18° |
| 2026-05-06 15:40 | 50.30507 | 8.41254 | 17571 ft | 390 kts | 18° |
| 2026-05-06 15:40 | 50.33085 | 8.42644 | 18062 ft | 393 kts | 18° |
| 2026-05-06 15:41 | 50.35680 | 8.44064 | 18519 ft | 397 kts | 18° |
| 2026-05-06 15:41 | 50.38295 | 8.45502 | 19024 ft | 400 kts | 18° |
| 2026-05-06 15:41 | 50.40930 | 8.46951 | 19634 ft | 403 kts | 18° |
| 2026-05-06 15:41 | 50.43592 | 8.48411 | 20254 ft | 405 kts | 18° |
| 2026-05-06 15:42 | 50.46273 | 8.49878 | 20812 ft | 409 kts | 18° |
| 2026-05-06 15:42 | 50.48974 | 8.51327 | 21288 ft | 411 kts | 17° |
| 2026-05-06 15:42 | 50.51702 | 8.52688 | 21735 ft | 413 kts | 15° |
| 2026-05-06 15:42 | 50.54460 | 8.53992 | 22165 ft | 415 kts | 15° |
| 2026-05-06 15:43 | 50.57239 | 8.55277 | 22587 ft | 417 kts | 14° |
| 2026-05-06 15:43 | 50.60043 | 8.56576 | 22884 ft | 423 kts | 14° |
| 2026-05-06 15:43 | 50.62877 | 8.57903 | 23267 ft | 426 kts | 14° |
| 2026-05-06 15:43 | 50.65723 | 8.59253 | 23612 ft | 429 kts | 14° |
| 2026-05-06 15:44 | 50.68591 | 8.60629 | 23951 ft | 431 kts | 14° |
| 2026-05-06 15:44 | 50.71467 | 8.62017 | 24285 ft | 434 kts | 14° |
| 2026-05-06 15:44 | 50.74334 | 8.63405 | 24620 ft | 436 kts | 15° |
| 2026-05-06 15:44 | 50.77233 | 8.64847 | 24957 ft | 439 kts | 18° |
| 2026-05-06 15:45 | 50.80031 | 8.66868 | 25278 ft | 444 kts | 28° |
| 2026-05-06 15:45 | 50.82590 | 8.69611 | 25610 ft | 447 kts | 39° |
| 2026-05-06 15:45 | 50.84853 | 8.73022 | 25938 ft | 450 kts | 49° |
| 2026-05-06 15:45 | 50.86789 | 8.76914 | 26268 ft | 451 kts | 53° |
| 2026-05-06 15:46 | 50.88692 | 8.80892 | 26611 ft | 453 kts | 53° |
| 2026-05-06 15:46 | 50.90602 | 8.84875 | 26952 ft | 456 kts | 53° |
| 2026-05-06 15:46 | 50.92519 | 8.88879 | 27280 ft | 458 kts | 53° |
| 2026-05-06 15:46 | 50.94451 | 8.92916 | 27643 ft | 460 kts | 54° |
| 2026-05-06 15:47 | 50.96388 | 8.96967 | 28008 ft | 462 kts | 54° |
| 2026-05-06 15:47 | 50.98332 | 9.01040 | 28335 ft | 464 kts | 54° |
| 2026-05-06 15:47 | 51.00281 | 9.05143 | 28611 ft | 468 kts | 54° |
| 2026-05-06 15:47 | 51.02244 | 9.09288 | 28880 ft | 471 kts | 54° |
| 2026-05-06 15:48 | 51.04211 | 9.13458 | 29182 ft | 473 kts | 54° |
| 2026-05-06 15:48 | 51.06188 | 9.17648 | 29495 ft | 475 kts | 54° |
| 2026-05-06 15:48 | 51.08341 | 9.21648 | 29783 ft | 478 kts | 45° |
| 2026-05-06 15:48 | 51.10876 | 9.25088 | 30025 ft | 481 kts | 36° |
| 2026-05-06 15:49 | 51.13729 | 9.27877 | 30263 ft | 483 kts | 26° |
| 2026-05-06 15:49 | 51.16829 | 9.29940 | 30501 ft | 483 kts | 17° |
| 2026-05-06 15:49 | 51.20086 | 9.31244 | 30717 ft | 483 kts | 10° |
| 2026-05-06 15:49 | 51.23377 | 9.32367 | 30957 ft | 484 kts | 10° |
| 2026-05-06 15:50 | 51.26665 | 9.33503 | 31276 ft | 483 kts | 10° |
| 2026-05-06 15:50 | 51.29951 | 9.34648 | 31585 ft | 482 kts | 11° |
| 2026-05-06 15:50 | 51.33215 | 9.35797 | 31876 ft | 481 kts | 11° |
| 2026-05-06 15:50 | 51.36486 | 9.36951 | 32174 ft | 480 kts | 11° |
| 2026-05-06 15:51 | 51.39745 | 9.38099 | 32483 ft | 479 kts | 11° |
| 2026-05-06 15:51 | 51.42992 | 9.39235 | 32769 ft | 478 kts | 10° |
| 2026-05-06 15:51 | 51.46238 | 9.40361 | 33118 ft | 475 kts | 10° |
| 2026-05-06 15:51 | 51.49468 | 9.41480 | 33423 ft | 474 kts | 10° |
| 2026-05-06 15:52 | 51.52687 | 9.42601 | 33701 ft | 474 kts | 10° |
| 2026-05-06 15:52 | 51.55912 | 9.43729 | 33942 ft | 473 kts | 10° |
| 2026-05-06 15:52 | 51.59129 | 9.44860 | 34140 ft | 473 kts | 11° |
| 2026-05-06 15:52 | 51.62303 | 9.45979 | 34329 ft | 474 kts | 11° |
| 2026-05-06 15:53 | 51.65526 | 9.47117 | 34520 ft | 474 kts | 11° |
| 2026-05-06 15:53 | 51.68746 | 9.48258 | 34720 ft | 474 kts | 11° |
| 2026-05-06 15:53 | 51.71973 | 9.49404 | 34906 ft | 475 kts | 11° |
| 2026-05-06 15:53 | 51.75197 | 9.50551 | 35080 ft | 475 kts | 11° |
| 2026-05-06 15:54 | 51.78429 | 9.51702 | 35273 ft | 475 kts | 11° |
| 2026-05-06 15:54 | 51.81660 | 9.52851 | 35464 ft | 475 kts | 10° |
| 2026-05-06 15:54 | 51.84896 | 9.53975 | 35647 ft | 475 kts | 9° |
| 2026-05-06 15:54 | 51.88143 | 9.54975 | 35824 ft | 475 kts | 8° |
| 2026-05-06 15:55 | 51.91400 | 9.55876 | 36005 ft | 475 kts | 7° |
| 2026-05-06 15:55 | 51.94663 | 9.56739 | 36183 ft | 475 kts | 7° |
| 2026-05-06 15:55 | 51.97923 | 9.57605 | 36341 ft | 475 kts | 7° |
| 2026-05-06 15:55 | 52.01188 | 9.58492 | 36500 ft | 475 kts | 7° |
| 2026-05-06 15:56 | 52.04450 | 9.59400 | 36657 ft | 475 kts | 8° |
| 2026-05-06 15:56 | 52.07704 | 9.60326 | 36795 ft | 476 kts | 8° |
| 2026-05-06 15:56 | 52.14233 | 9.62218 | 36832 ft | 476 kts | 8° |
| 2026-05-06 15:57 | 52.20749 | 9.64116 | 36828 ft | 475 kts | 8° |
| 2026-05-06 15:57 | 52.27259 | 9.65990 | 36830 ft | 475 kts | 8° |
| 2026-05-06 15:58 | 52.33765 | 9.67872 | 36834 ft | 475 kts | 8° |
| 2026-05-06 15:58 | 52.40230 | 9.69750 | 36851 ft | 475 kts | 8° |
| 2026-05-06 15:59 | 52.46745 | 9.71640 | 36861 ft | 475 kts | 8° |
| 2026-05-06 15:59 | 52.53262 | 9.73545 | 36862 ft | 475 kts | 8° |
| 2026-05-06 16:00 | 52.59774 | 9.75458 | 36855 ft | 475 kts | 8° |
| 2026-05-06 16:00 | 52.66289 | 9.77379 | 36869 ft | 475 kts | 8° |
| 2026-05-06 16:01 | 52.72805 | 9.79300 | 36863 ft | 475 kts | 8° |
| 2026-05-06 16:01 | 52.79317 | 9.81229 | 36870 ft | 475 kts | 8° |
| 2026-05-06 16:02 | 52.85832 | 9.83161 | 36875 ft | 475 kts | 8° |
| 2026-05-06 16:02 | 52.92296 | 9.85085 | 36868 ft | 474 kts | 8° |
| 2026-05-06 16:03 | 52.98787 | 9.87021 | 36868 ft | 473 kts | 8° |
| 2026-05-06 16:03 | 53.05269 | 9.88968 | 36871 ft | 473 kts | 8° |
| 2026-05-06 16:04 | 53.11738 | 9.90914 | 36871 ft | 473 kts | 8° |
| 2026-05-06 16:04 | 53.17175 | 9.92544 | 36879 ft | 473 kts | 8° |
| 2026-05-06 16:05 | 53.23654 | 9.94503 | 36886 ft | 473 kts | 8° |
| 2026-05-06 16:05 | 53.30099 | 9.96453 | 36887 ft | 473 kts | 8° |
| 2026-05-06 16:06 | 53.36591 | 9.98419 | 36899 ft | 473 kts | 8° |
| 2026-05-06 16:06 | 53.43068 | 10.00391 | 36904 ft | 473 kts | 8° |
| 2026-05-06 16:07 | 53.49531 | 10.02371 | 36916 ft | 472 kts | 8° |
| 2026-05-06 16:07 | 53.55997 | 10.04361 | 36917 ft | 472 kts | 8° |
| 2026-05-06 16:08 | 53.62461 | 10.06344 | 36920 ft | 472 kts | 8° |
| 2026-05-06 16:08 | 53.68929 | 10.08334 | 36917 ft | 472 kts | 8° |
| 2026-05-06 16:09 | 53.75395 | 10.10336 | 36918 ft | 473 kts | 8° |
| 2026-05-06 16:09 | 53.81870 | 10.12355 | 36924 ft | 473 kts | 8° |
| 2026-05-06 16:10 | 53.88342 | 10.14372 | 36926 ft | 473 kts | 8° |
| 2026-05-06 16:10 | 53.94811 | 10.16397 | 36925 ft | 473 kts | 8° |
| 2026-05-06 16:11 | 54.01289 | 10.18421 | 36923 ft | 473 kts | 8° |
| 2026-05-06 16:11 | 54.07754 | 10.20458 | 36936 ft | 472 kts | 8° |
| 2026-05-06 16:12 | 54.14218 | 10.22505 | 36940 ft | 472 kts | 8° |
| 2026-05-06 16:12 | 54.20684 | 10.24552 | 36940 ft | 472 kts | 8° |
| 2026-05-06 16:13 | 54.27115 | 10.26585 | 36942 ft | 472 kts | 8° |
| 2026-05-06 16:13 | 54.33586 | 10.28642 | 36952 ft | 472 kts | 8° |
| 2026-05-06 16:14 | 54.40055 | 10.30708 | 36946 ft | 472 kts | 8° |
| 2026-05-06 16:14 | 54.46523 | 10.32789 | 36936 ft | 473 kts | 8° |
| 2026-05-06 16:15 | 54.52994 | 10.34864 | 36935 ft | 473 kts | 8° |
| 2026-05-06 16:15 | 54.59463 | 10.36939 | 36946 ft | 473 kts | 8° |
| 2026-05-06 16:16 | 54.65934 | 10.39032 | 36942 ft | 473 kts | 8° |
| 2026-05-06 16:16 | 54.72414 | 10.41149 | 36942 ft | 474 kts | 8° |
| 2026-05-06 16:17 | 54.78849 | 10.43264 | 36941 ft | 474 kts | 8° |
| 2026-05-06 16:17 | 54.85324 | 10.45383 | 36958 ft | 474 kts | 8° |
| 2026-05-06 16:18 | 54.91812 | 10.47499 | 36947 ft | 474 kts | 8° |
| 2026-05-06 16:18 | 54.98294 | 10.49624 | 36944 ft | 474 kts | 8° |
| 2026-05-06 16:19 | 55.04781 | 10.51761 | 36949 ft | 474 kts | 8° |
| 2026-05-06 16:19 | 55.11270 | 10.53915 | 36953 ft | 474 kts | 8° |
| 2026-05-06 16:20 | 55.17751 | 10.56075 | 36954 ft | 474 kts | 8° |
| 2026-05-06 16:20 | 55.24186 | 10.58219 | 36958 ft | 474 kts | 8° |
| 2026-05-06 16:21 | 55.30666 | 10.60388 | 36962 ft | 474 kts | 8° |
| 2026-05-06 16:21 | 55.37156 | 10.62567 | 36973 ft | 475 kts | 8° |
| 2026-05-06 16:22 | 55.43643 | 10.64768 | 36960 ft | 475 kts | 8° |
| 2026-05-06 16:22 | 55.50130 | 10.66961 | 36969 ft | 475 kts | 8° |
| 2026-05-06 16:23 | 55.56622 | 10.69144 | 36955 ft | 475 kts | 8° |
| 2026-05-06 16:23 | 55.63108 | 10.71330 | 36968 ft | 475 kts | 8° |
| 2026-05-06 16:24 | 55.69593 | 10.73534 | 36958 ft | 475 kts | 8° |
| 2026-05-06 16:24 | 55.76084 | 10.75770 | 36966 ft | 475 kts | 8° |
| 2026-05-06 16:25 | 55.82573 | 10.78015 | 36969 ft | 475 kts | 8° |
| 2026-05-06 16:25 | 55.89063 | 10.80259 | 36971 ft | 474 kts | 8° |
| 2026-05-06 16:26 | 55.95544 | 10.82498 | 36968 ft | 475 kts | 8° |
| 2026-05-06 16:26 | 56.02032 | 10.84739 | 36968 ft | 475 kts | 7° |
| 2026-05-06 16:27 | 56.08521 | 10.86993 | 36967 ft | 475 kts | 8° |
| 2026-05-06 16:27 | 56.11765 | 10.88128 | 36826 ft | 475 kts | 7° |
| 2026-05-06 16:27 | 56.15014 | 10.89266 | 36563 ft | 474 kts | 7° |
| 2026-05-06 16:28 | 56.18212 | 10.90387 | 36306 ft | 474 kts | 7° |
| 2026-05-06 16:28 | 56.21486 | 10.91538 | 35876 ft | 472 kts | 7° |
| 2026-05-06 16:28 | 56.24664 | 10.92658 | 35356 ft | 470 kts | 8° |
| 2026-05-06 16:28 | 56.27866 | 10.93789 | 34841 ft | 467 kts | 8° |
| 2026-05-06 16:29 | 56.31052 | 10.94914 | 34330 ft | 465 kts | 8° |
| 2026-05-06 16:29 | 56.34219 | 10.96034 | 33796 ft | 464 kts | 8° |
| 2026-05-06 16:29 | 56.37375 | 10.97155 | 33279 ft | 461 kts | 7° |
| 2026-05-06 16:29 | 56.40515 | 10.98275 | 32761 ft | 457 kts | 7° |
| 2026-05-06 16:30 | 56.43624 | 10.99383 | 32246 ft | 454 kts | 7° |
| 2026-05-06 16:30 | 56.45712 | 11.00128 | 31893 ft | 451 kts | 7° |
| 2026-05-06 16:30 | 56.49772 | 11.01579 | 31242 ft | 447 kts | 7° |
| 2026-05-06 16:30 | 56.52814 | 11.02663 | 30746 ft | 444 kts | 7° |
| 2026-05-06 16:31 | 56.55835 | 11.03732 | 30256 ft | 441 kts | 7° |
| 2026-05-06 16:31 | 56.58840 | 11.04797 | 29727 ft | 439 kts | 7° |
| 2026-05-06 16:31 | 56.61818 | 11.05860 | 29265 ft | 434 kts | 7° |
| 2026-05-06 16:31 | 56.64770 | 11.06922 | 28790 ft | 430 kts | 6° |
| 2026-05-06 16:32 | 56.67695 | 11.07979 | 28341 ft | 426 kts | 6° |
| 2026-05-06 16:32 | 56.70586 | 11.09027 | 27883 ft | 421 kts | 6° |
| 2026-05-06 16:32 | 56.73445 | 11.10060 | 27465 ft | 417 kts | 6° |
| 2026-05-06 16:32 | 56.76279 | 11.11085 | 27036 ft | 413 kts | 6° |
| 2026-05-06 16:33 | 56.79081 | 11.12099 | 26626 ft | 408 kts | 6° |
| 2026-05-06 16:33 | 56.81815 | 11.13095 | 26214 ft | 404 kts | 6° |
| 2026-05-06 16:33 | 56.84555 | 11.14092 | 25799 ft | 400 kts | 6° |
| 2026-05-06 16:34 | 56.89974 | 11.16056 | 24975 ft | 394 kts | 5° |
| 2026-05-06 16:34 | 56.92656 | 11.17032 | 24531 ft | 391 kts | 5° |
| 2026-05-06 16:34 | 56.95310 | 11.18006 | 24107 ft | 388 kts | 5° |
| 2026-05-06 16:34 | 56.97951 | 11.18980 | 23670 ft | 385 kts | 5° |
| 2026-05-06 16:35 | 57.00574 | 11.19946 | 23186 ft | 382 kts | 5° |
| 2026-05-06 16:35 | 57.03166 | 11.20895 | 22746 ft | 377 kts | 5° |
| 2026-05-06 16:35 | 57.05726 | 11.21834 | 22318 ft | 373 kts | 6° |
| 2026-05-06 16:35 | 57.08255 | 11.22764 | 21873 ft | 369 kts | 6° |
| 2026-05-06 16:36 | 57.10751 | 11.23816 | 21430 ft | 369 kts | 14° |
| 2026-05-06 16:36 | 57.13005 | 11.25972 | 20993 ft | 373 kts | 34° |
| 2026-05-06 16:36 | 57.14964 | 11.29089 | 20579 ft | 371 kts | 39° |
| 2026-05-06 16:36 | 57.16878 | 11.32266 | 20134 ft | 369 kts | 39° |
| 2026-05-06 16:37 | 57.18769 | 11.35432 | 19672 ft | 366 kts | 39° |
| 2026-05-06 16:37 | 57.20644 | 11.38580 | 19259 ft | 363 kts | 39° |
| 2026-05-06 16:37 | 57.22508 | 11.41709 | 18833 ft | 360 kts | 39° |
| 2026-05-06 16:37 | 57.24354 | 11.44809 | 18402 ft | 358 kts | 40° |
| 2026-05-06 16:38 | 57.26189 | 11.47893 | 17944 ft | 355 kts | 40° |
| 2026-05-06 16:38 | 57.28003 | 11.50942 | 17506 ft | 350 kts | 40° |
| 2026-05-06 16:38 | 57.29796 | 11.53956 | 17094 ft | 346 kts | 40° |
| 2026-05-06 16:38 | 57.31561 | 11.56929 | 16680 ft | 341 kts | 40° |
| 2026-05-06 16:39 | 57.33308 | 11.59875 | 16277 ft | 337 kts | 40° |
| 2026-05-06 16:39 | 57.35029 | 11.62773 | 15876 ft | 333 kts | 40° |
| 2026-05-06 16:39 | 57.36730 | 11.65644 | 15483 ft | 329 kts | 40° |
| 2026-05-06 16:39 | 57.38411 | 11.68488 | 15099 ft | 325 kts | 40° |
| 2026-05-06 16:40 | 57.40074 | 11.71307 | 14701 ft | 322 kts | 40° |
| 2026-05-06 16:40 | 57.41722 | 11.74104 | 14309 ft | 319 kts | 40° |
| 2026-05-06 16:40 | 57.43351 | 11.76872 | 13933 ft | 316 kts | 40° |
| 2026-05-06 16:40 | 57.44965 | 11.79618 | 13525 ft | 313 kts | 40° |
| 2026-05-06 16:41 | 57.46564 | 11.82348 | 13153 ft | 309 kts | 41° |
| 2026-05-06 16:41 | 57.48136 | 11.85035 | 12785 ft | 305 kts | 41° |
| 2026-05-06 16:41 | 57.49685 | 11.87682 | 12424 ft | 301 kts | 41° |
| 2026-05-06 16:41 | 57.51218 | 11.90303 | 12068 ft | 297 kts | 41° |
| 2026-05-06 16:42 | 57.52734 | 11.92897 | 11715 ft | 294 kts | 41° |
| 2026-05-06 16:42 | 57.54229 | 11.95458 | 11384 ft | 290 kts | 42° |
| 2026-05-06 16:42 | 57.55757 | 11.97797 | 11053 ft | 286 kts | 33° |
| 2026-05-06 16:42 | 57.57481 | 11.99597 | 10724 ft | 283 kts | 26° |
| 2026-05-06 16:43 | 57.59221 | 12.01277 | 10397 ft | 282 kts | 27° |
| 2026-05-06 16:43 | 57.60994 | 12.03008 | 10064 ft | 290 kts | 27° |
| 2026-05-06 16:43 | 57.62773 | 12.04758 | 9710 ft | 289 kts | 28° |
| 2026-05-06 16:43 | 57.64561 | 12.06520 | 9346 ft | 295 kts | 28° |
| 2026-05-06 16:44 | 57.66386 | 12.08316 | 8997 ft | 297 kts | 28° |
| 2026-05-06 16:44 | 57.68218 | 12.10116 | 8638 ft | 296 kts | 28° |
| 2026-05-06 16:44 | 57.70046 | 12.11910 | 8294 ft | 295 kts | 28° |
| 2026-05-06 16:44 | 57.71844 | 12.13676 | 8022 ft | 296 kts | 28° |
| 2026-05-06 16:45 | 57.73659 | 12.15456 | 7661 ft | 293 kts | 28° |
| 2026-05-06 16:45 | 57.75466 | 12.17232 | 7314 ft | 292 kts | 28° |
| 2026-05-06 16:45 | 57.77257 | 12.19001 | 6941 ft | 290 kts | 29° |
| 2026-05-06 16:45 | 57.79040 | 12.20767 | 6582 ft | 289 kts | 29° |
| 2026-05-06 16:46 | 57.80814 | 12.22520 | 6235 ft | 287 kts | 29° |
| 2026-05-06 16:46 | 57.82573 | 12.24256 | 5911 ft | 283 kts | 29° |
| 2026-05-06 16:46 | 57.84312 | 12.25996 | 5835 ft | 284 kts | 32° |
| 2026-05-06 16:46 | 57.85790 | 12.28398 | 5718 ft | 281 kts | 54° |
| 2026-05-06 16:47 | 57.86711 | 12.31597 | 5337 ft | 281 kts | 75° |
| 2026-05-06 16:47 | 57.86935 | 12.35179 | 5038 ft | 268 kts | 96° |
| 2026-05-06 16:47 | 57.86485 | 12.38373 | 4699 ft | 245 kts | 121° |
| 2026-05-06 16:47 | 57.85388 | 12.40682 | 4195 ft | 232 kts | 147° |
| 2026-05-06 16:48 | 57.83959 | 12.41946 | 3980 ft | 225 kts | 167° |
| 2026-05-06 16:48 | 57.82416 | 12.42177 | 3745 ft | 223 kts | 187° |
| 2026-05-06 16:48 | 57.80941 | 12.41392 | 3501 ft | 219 kts | 205° |
| 2026-05-06 16:48 | 57.80038 | 12.40562 | 3297 ft | 215 kts | 206° |
| 2026-05-06 16:49 | 57.78294 | 12.38961 | 2922 ft | 202 kts | 207° |
| 2026-05-06 16:49 | 57.77475 | 12.38211 | 2747 ft | 191 kts | 208° |
| 2026-05-06 16:49 | 57.76010 | 12.36872 | 2408 ft | 164 kts | 209° |
| 2026-05-06 16:49 | 57.75332 | 12.36247 | 2255 ft | 158 kts | 209° |
| 2026-05-06 16:50 | 57.74067 | 12.35059 | 1945 ft | 150 kts | 211° |
| 2026-05-06 16:50 | 57.73438 | 12.34458 | 1772 ft | 150 kts | 210° |
| 2026-05-06 16:50 | 57.72492 | 12.33657 | 1591 ft | 149 kts | 208° |
| 2026-05-06 16:50 | 57.71571 | 12.32815 | 1436 ft | 150 kts | 212° |
| 2026-05-06 16:51 | 57.70644 | 12.31927 | 1215 ft | 149 kts | 212° |
| 2026-05-06 16:51 | 57.69702 | 12.31103 | 1024 ft | 149 kts | 209° |
| 2026-05-06 16:51 | 57.68778 | 12.30249 | 827 ft | 148 kts | 210° |
| 2026-05-06 16:51 | 57.67855 | 12.29420 | 622 ft | 145 kts | 212° |
| 2026-05-06 16:52 | 57.66988 | 12.28611 | 522 ft | 126 kts | 205° |
| 2026-05-06 16:52 | 57.66353 | 12.28036 | 517 ft | 76 kts | 206° |
| 2026-05-06 16:52 | 57.65981 | 12.27701 | 517 ft | 38 kts | 199° |
| 2026-05-06 16:52 | 57.65807 | 12.27668 | 518 ft | 13 kts | 169° |
| 2026-05-06 16:53 | 57.65764 | 12.27676 | 520 ft | 5 kts | 175° |
| 2026-05-06 16:53 | 57.65734 | 12.27688 | 521 ft | 4 kts | 161° |
| 2026-05-06 16:53 | 57.65717 | 12.27733 | 520 ft | 6 kts | 95° |
| 2026-05-06 16:53 | 57.65744 | 12.27834 | 518 ft | 10 kts | 27° |
| 2026-05-06 16:54 | 57.65813 | 12.27899 | 519 ft | 12 kts | 27° |
| 2026-05-06 16:54 | 57.65897 | 12.27971 | 516 ft | 15 kts | 24° |
| 2026-05-06 16:54 | 57.66008 | 12.28073 | 513 ft | 19 kts | 26° |
| 2026-05-06 16:54 | 57.66142 | 12.28195 | 511 ft | 23 kts | 26° |
| 2026-05-06 16:55 | 57.66296 | 12.28337 | 514 ft | 28 kts | 26° |
| 2026-05-06 16:55 | 57.66484 | 12.28508 | 514 ft | 33 kts | 26° |
| 2026-05-06 16:55 | 57.66692 | 12.28697 | 512 ft | 34 kts | 26° |
| 2026-05-06 16:55 | 57.66898 | 12.28882 | 519 ft | 32 kts | 26° |
| 2026-05-06 16:56 | 57.67042 | 12.29028 | 520 ft | 12 kts | 60° |
| 2026-05-06 16:56 | 57.67015 | 12.29182 | 517 ft | 15 kts | 115° |
| 2026-05-06 16:56 | 57.66967 | 12.29346 | 521 ft | 5 kts | 117° |
| 2026-05-06 16:56 | 57.66960 | 12.29365 | 522 ft | 0 kts | 118° |
| 2026-05-06 16:57 | 57.66953 | 12.29394 | 523 ft | 5 kts | 115° |
| 2026-05-06 16:57 | 57.66938 | 12.29449 | 523 ft | 3 kts | 116° |
| 2026-05-06 16:57 | 57.66935 | 12.29463 | 523 ft | 2 kts | 116° |
| 2026-05-06 16:57 | 57.66934 | 12.29465 | 523 ft | 0 kts | 116° |
| 2026-05-06 16:58 | 57.66934 | 12.29466 | 523 ft | 0 kts | 116° |
| 2026-05-06 17:00 | 57.66934 | 12.29465 | 522 ft | 0 kts | 116° |
| 2026-05-06 17:00 | 57.66936 | 12.29458 | 522 ft | 0 kts | 116° |